Consulta les dades en temps real de l'estació municipal de Seva
| Hora UTC | 10:40 |
|---|---|
| Temperatura | 29.5 ºC |
| Sòl 15 cm | 37.5 ºC |
| Humitat | 45.4 % |
| Pressió | 1024.7 hPa |
| Pluja | 0.0 mm |
| Velocitat vent | 6.7 km/h |
| Direcció vent | W |
| Radiació solar | 719.3 W/m² |
| Temperatura (ºC) | Humitat (%) | Pressió (hPa) | Velocitat vent (km/h) | Precipitació (mm) | Radiació solar (W/m²) | ||||||||||||||
|---|---|---|---|---|---|---|---|---|---|---|---|---|---|---|---|---|---|---|---|
| Hora UTC | Aire | Sòl 15 cm | Humitat | Pressió | Vel. | Dir. | Vel. Max | Dir. | Intent. màx 5 min. | Rad. Sol. | |||||||||
| 00:05 | 18.0 | 16.3 | 88.9 | 1023.8 | 2.9 | ESE | 2.9 | ESE | 0.0 | 0.0 | |||||||||
| 00:10 | 17.9 | 16.2 | 89.8 | 1023.8 | 1.9 | SE | 3.9 | SE | 0.0 | 0.1 | |||||||||
| 00:15 | 18.0 | 16.2 | 90.4 | 1023.8 | 3.0 | ESE | 4.2 | ESE | 0.0 | 0.1 | |||||||||
| 00:20 | 17.9 | 16.2 | 89.8 | 1023.8 | 2.4 | E | 3.5 | ESE | 0.0 | 0.0 | |||||||||
| 00:25 | 17.8 | 16.1 | 90.7 | 1023.8 | 2.3 | SE | 3.2 | SE | 0.0 | 0.1 | |||||||||
| 00:30 | 17.9 | 16.1 | 91.0 | 1023.7 | 2.2 | SE | 3.2 | SE | 0.0 | 0.1 | |||||||||
| 00:35 | 17.9 | 16.2 | 90.7 | 1023.7 | 1.2 | SSE | 2.5 | S | 0.0 | 0.1 | |||||||||
| 00:40 | 17.7 | 16.0 | 90.1 | 1023.7 | 1.5 | ESE | 3.5 | ESE | 0.0 | 0.1 | |||||||||
| 00:45 | 17.6 | 15.9 | 90.6 | 1023.8 | 2.0 | SSE | 3.2 | S | 0.0 | 0.0 | |||||||||
| 00:50 | 17.5 | 15.8 | 90.3 | 1023.8 | 2.4 | SE | 4.2 | SE | 0.0 | 0.1 | |||||||||
| 00:55 | 17.4 | 15.7 | 90.7 | 1023.7 | 3.3 | SSE | 4.1 | SSW | 0.0 | 0.0 | |||||||||
| 01:00 | 17.5 | 15.7 | 91.3 | 1023.7 | 4.9 | E | 8.5 | ENE | 0.0 | 0.1 | |||||||||
| 01:05 | 17.4 | 15.7 | 91.6 | 1023.7 | 3.0 | ESE | 4.6 | SE | 0.0 | 0.1 | |||||||||
| 01:10 | 17.6 | 15.8 | 91.9 | 1023.7 | 3.7 | E | 7.1 | E | 0.0 | 0.0 | |||||||||
| 01:15 | 17.5 | 15.9 | 91.2 | 1023.7 | 5.0 | E | 6.7 | ENE | 0.0 | 0.0 | |||||||||
| 01:20 | 17.5 | 15.9 | 91.6 | 1023.8 | 4.3 | E | 5.3 | E | 0.0 | 0.0 | |||||||||
| 01:25 | 17.5 | 15.9 | 91.4 | 1023.7 | 5.2 | ENE | 6.7 | ENE | 0.0 | 0.0 | |||||||||
| 01:30 | 17.5 | 15.9 | 91.5 | 1023.6 | 5.8 | ENE | 7.4 | ENE | 0.0 | 0.1 | |||||||||
| 01:35 | 17.6 | 16.1 | 91.8 | 1023.5 | 6.0 | E | 8.8 | ESE | 0.0 | 0.0 | |||||||||
| 01:40 | 17.8 | 16.2 | 92.2 | 1023.5 | 7.6 | ESE | 9.9 | E | 0.0 | 0.1 | |||||||||
| 01:45 | 18.0 | 16.2 | 91.9 | 1023.4 | 6.6 | ESE | 9.2 | ESE | 0.0 | 0.0 | |||||||||
| 01:50 | 18.2 | 16.4 | 92.0 | 1023.5 | 6.0 | ESE | 8.1 | ESE | 0.0 | 0.1 | |||||||||
| 01:55 | 18.3 | 16.5 | 90.7 | 1023.6 | 3.0 | SE | 8.1 | ESE | 0.0 | 0.1 | |||||||||
| 02:00 | 18.0 | 16.4 | 90.2 | 1023.7 | 2.7 | WNW | 3.5 | W | 0.0 | 0.0 | |||||||||
| 02:05 | 17.9 | 16.3 | 90.6 | 1023.7 | 1.2 | NW | 2.8 | WNW | 0.0 | 0.0 | |||||||||
| 02:10 | 17.8 | 16.1 | 91.1 | 1023.7 | 2.3 | ENE | 4.9 | ENE | 0.0 | 0.1 | |||||||||
| 02:15 | 17.7 | 16.0 | 91.8 | 1023.7 | 4.4 | E | 5.6 | ENE | 0.0 | 0.1 | |||||||||
| 02:20 | 17.5 | 15.9 | 92.0 | 1023.6 | 3.4 | E | 6.0 | E | 0.0 | 0.1 | |||||||||
| 02:25 | 17.3 | 15.8 | 92.3 | 1023.5 | 3.5 | E | 5.3 | E | 0.0 | 0.1 | |||||||||
| 02:30 | 17.2 | 15.6 | 92.6 | 1023.5 | 4.7 | E | 6.0 | E | 0.0 | 0.1 | |||||||||
| 02:35 | 17.0 | 15.5 | 92.8 | 1023.5 | 3.9 | E | 5.3 | ENE | 0.0 | 0.0 | |||||||||
| 02:40 | 16.9 | 15.3 | 93.3 | 1023.5 | 2.8 | E | 3.9 | E | 0.0 | 0.1 | |||||||||
| 02:45 | 16.9 | 15.4 | 93.6 | 1023.6 | 2.3 | E | 2.8 | E | 0.0 | 0.1 | |||||||||
| 02:50 | 16.8 | 15.3 | 93.7 | 1023.6 | 3.2 | E | 4.2 | E | 0.0 | 0.1 | |||||||||
| 02:55 | 16.7 | 15.2 | 93.7 | 1023.6 | 4.4 | ENE | 6.0 | ENE | 0.0 | 0.0 | |||||||||
| 03:00 | 16.6 | 15.2 | 93.9 | 1023.7 | 1.6 | NNE | 4.2 | ENE | 0.0 | 0.1 | |||||||||
| 03:05 | 16.7 | 15.1 | 94.2 | 1023.7 | 1.1 | ENE | 2.8 | NNE | 0.0 | 0.1 | |||||||||
| 03:10 | 16.7 | 15.0 | 94.4 | 1023.7 | 3.2 | E | 4.6 | E | 0.0 | 0.0 | |||||||||
| 03:15 | 16.6 | 15.0 | 94.4 | 1023.7 | 4.1 | E | 6.0 | ENE | 0.0 | 0.1 | |||||||||
| 03:20 | 16.6 | 15.0 | 94.7 | 1023.7 | 5.6 | E | 7.1 | E | 0.0 | 0.0 | |||||||||
| 03:25 | 16.6 | 15.0 | 94.6 | 1023.6 | 5.2 | E | 7.1 | ENE | 0.0 | 0.0 | |||||||||
| 03:30 | 16.6 | 15.0 | 94.3 | 1023.6 | 4.9 | E | 6.0 | ENE | 0.0 | 0.0 | |||||||||
| 03:35 | 16.5 | 14.9 | 94.2 | 1023.6 | 4.4 | ENE | 5.3 | E | 0.0 | 0.0 | |||||||||
| 03:40 | 16.5 | 14.9 | 94.5 | 1023.7 | 4.4 | ENE | 4.9 | ENE | 0.0 | 0.1 | |||||||||
| 03:45 | 16.3 | 14.8 | 94.3 | 1023.7 | 3.7 | ENE | 4.9 | ENE | 0.0 | 0.1 | |||||||||
| 03:50 | 16.3 | 14.7 | 94.7 | 1023.7 | 3.2 | ENE | 3.9 | ENE | 0.0 | 0.1 | |||||||||
| 03:55 | 16.3 | 14.8 | 94.8 | 1023.7 | 3.3 | ENE | 4.6 | ENE | 0.0 | 0.1 | |||||||||
| 04:00 | 16.2 | 14.8 | 95.0 | 1023.6 | 3.6 | ENE | 5.3 | NE | 0.0 | 0.1 | |||||||||
| 04:05 | 16.2 | 14.8 | 95.3 | 1023.6 | 3.6 | NE | 4.9 | NE | 0.0 | 0.1 | |||||||||
| 04:10 | 16.3 | 14.7 | 95.5 | 1023.6 | 3.3 | ENE | 4.6 | NE | 0.0 | 0.1 | |||||||||
| 04:15 | 16.3 | 14.7 | 95.4 | 1023.5 | 3.3 | E | 4.6 | E | 0.0 | 0.1 | |||||||||
| 04:20 | 16.2 | 14.7 | 95.4 | 1023.5 | 3.1 | E | 4.6 | ENE | 0.0 | 0.1 | |||||||||
| 04:25 | 16.2 | 14.6 | 95.4 | 1023.4 | 2.9 | E | 3.5 | E | 0.0 | 0.1 | |||||||||
| 04:30 | 16.1 | 14.6 | 95.4 | 1023.4 | 2.9 | ESE | 3.5 | ESE | 0.0 | 0.0 | |||||||||
| 04:35 | 16.1 | 14.5 | 95.5 | 1023.4 | 0.8 | SSE | 2.8 | SE | 0.0 | 0.0 | |||||||||
| 04:40 | 16.1 | 14.5 | 95.6 | 1023.5 | 0.0 | WSW | 1.1 | WSW | 0.0 | 0.0 | |||||||||
| 04:45 | 16.0 | 14.4 | 95.7 | 1023.4 | 0.4 | N | 2.5 | NNE | 0.0 | 0.0 | |||||||||
| 04:50 | 16.0 | 14.4 | 95.9 | 1023.5 | 0.5 | NNW | 2.5 | NNE | 0.0 | 0.1 | |||||||||
| 04:55 | 15.9 | 14.3 | 96.0 | 1023.5 | 0.7 | N | 3.9 | N | 0.0 | 0.1 | |||||||||
| 05:00 | 15.9 | 14.3 | 96.2 | 1023.6 | 2.6 | NE | 3.5 | E | 0.0 | 0.1 | |||||||||
| 05:05 | 15.9 | 14.3 | 96.1 | 1023.6 | 3.4 | E | 4.6 | E | 0.0 | 0.4 | |||||||||
| 05:10 | 15.9 | 14.3 | 96.2 | 1023.6 | 3.8 | E | 4.9 | E | 0.0 | 1.0 | |||||||||
| 05:15 | 15.9 | 14.3 | 96.2 | 1023.6 | 3.5 | E | 4.6 | E | 0.0 | 1.9 | |||||||||
| 05:20 | 15.9 | 14.3 | 96.1 | 1023.6 | 3.5 | E | 4.2 | E | 0.0 | 3.4 | |||||||||
| 05:25 | 15.8 | 14.2 | 96.0 | 1023.6 | 3.2 | ENE | 4.6 | E | 0.0 | 5.2 | |||||||||
| 05:30 | 15.7 | 14.2 | 96.0 | 1023.7 | 2.2 | E | 3.5 | ENE | 0.0 | 7.8 | |||||||||
| 05:35 | 15.8 | 14.2 | 96.3 | 1023.7 | 1.1 | E | 2.1 | E | 0.0 | 10.8 | |||||||||
| 05:40 | 16.0 | 14.3 | 96.5 | 1023.7 | 0.0 | NNE | 0.0 | ENE | 0.0 | 14.0 | |||||||||
| 05:45 | 16.1 | 14.5 | 96.6 | 1023.8 | 1.3 | NNW | 2.8 | NNW | 0.0 | 17.3 | |||||||||
| 05:50 | 16.2 | 14.6 | 96.7 | 1023.8 | 0.7 | N | 2.5 | N | 0.0 | 21.5 | |||||||||
| 05:55 | 15.9 | 14.6 | 96.2 | 1023.8 | 1.5 | ENE | 4.2 | ENE | 0.0 | 30.3 | |||||||||
| 06:00 | 16.0 | 14.6 | 96.4 | 1023.8 | 2.2 | E | 3.5 | E | 0.0 | 49.2 | |||||||||
| 06:05 | 16.3 | 14.7 | 96.8 | 1023.9 | 1.3 | SE | 2.5 | SE | 0.0 | 78.5 | |||||||||
| 06:10 | 16.5 | 15.0 | 96.8 | 1023.9 | 0.0 | NNE | 0.0 | SE | 0.0 | 102.3 | |||||||||
| 06:15 | 16.5 | 15.2 | 96.7 | 1023.9 | 1.0 | N | 2.8 | NNW | 0.0 | 115.0 | |||||||||
| 06:20 | 16.5 | 15.3 | 96.3 | 1024.0 | 1.7 | NNE | 3.5 | NNE | 0.0 | 127.4 | |||||||||
| 06:25 | 16.7 | 15.4 | 96.3 | 1024.1 | 2.2 | NNE | 3.9 | N | 0.0 | 140.2 | |||||||||
| 06:30 | 16.8 | 15.7 | 96.1 | 1024.1 | 3.6 | N | 5.3 | NNE | 0.0 | 150.1 | |||||||||
| 06:35 | 17.2 | 16.0 | 95.8 | 1024.2 | 3.2 | N | 5.6 | N | 0.0 | 158.7 | |||||||||
| 06:40 | 17.6 | 16.3 | 94.9 | 1024.2 | 3.1 | N | 5.6 | N | 0.0 | 170.3 | |||||||||
| 06:45 | 18.0 | 16.7 | 93.3 | 1024.3 | 3.2 | NNE | 7.4 | N | 0.0 | 183.4 | |||||||||
| 06:50 | 18.5 | 17.9 | 91.0 | 1024.4 | 3.0 | NNE | 5.3 | N | 0.0 | 198.2 | |||||||||
| 06:55 | 18.9 | 19.5 | 88.8 | 1024.5 | 2.9 | NNW | 4.2 | N | 0.0 | 213.3 | |||||||||
| 07:00 | 19.0 | 19.5 | 87.6 | 1024.5 | 3.4 | N | 5.6 | NNW | 0.0 | 227.9 | |||||||||
| 07:05 | 19.3 | 19.7 | 86.3 | 1024.6 | 2.3 | NNE | 4.6 | N | 0.0 | 242.4 | |||||||||
| 07:10 | 19.8 | 20.3 | 84.6 | 1024.6 | 2.2 | NNE | 4.2 | N | 0.0 | 256.2 | |||||||||
| 07:15 | 20.2 | 21.1 | 83.3 | 1024.5 | 1.0 | N | 2.5 | NNE | 0.0 | 271.2 | |||||||||
| 07:20 | 21.0 | 22.8 | 80.3 | 1024.4 | 0.4 | NE | 2.8 | NNE | 0.0 | 286.4 | |||||||||
| 07:25 | 21.3 | 24.8 | 78.4 | 1024.4 | 1.5 | NW | 3.9 | WNW | 0.0 | 301.2 | |||||||||
| 07:30 | 21.2 | 26.2 | 78.4 | 1024.5 | 2.2 | WNW | 4.6 | W | 0.0 | 315.3 | |||||||||
| 07:35 | 21.0 | 26.8 | 79.3 | 1024.4 | 2.7 | WNW | 6.4 | WNW | 0.0 | 329.0 | |||||||||
| 07:40 | 21.0 | 27.3 | 79.3 | 1024.5 | 4.7 | WNW | 7.8 | WNW | 0.0 | 344.1 | |||||||||
| 07:45 | 21.0 | 27.5 | 79.0 | 1024.5 | 6.2 | WNW | 8.5 | NW | 0.0 | 358.4 | |||||||||
| 07:50 | 21.0 | 27.6 | 79.4 | 1024.5 | 3.9 | NW | 6.7 | WNW | 0.0 | 372.2 | |||||||||
| 07:55 | 21.2 | 28.1 | 79.1 | 1024.5 | 3.3 | NNW | 5.6 | NW | 0.0 | 385.2 | |||||||||
| 08:00 | 21.6 | 28.4 | 77.7 | 1024.5 | 2.8 | NW | 6.4 | NW | 0.0 | 398.1 | |||||||||
| 08:05 | 21.8 | 28.7 | 76.8 | 1024.6 | 1.6 | NW | 4.9 | NNW | 0.0 | 411.1 | |||||||||
| 08:10 | 22.2 | 29.2 | 75.3 | 1024.6 | 2.9 | NNW | 5.6 | NNW | 0.0 | 425.4 | |||||||||
| 08:15 | 22.5 | 29.6 | 74.6 | 1024.6 | 2.4 | NNW | 4.9 | NNW | 0.0 | 438.8 | |||||||||
| 08:20 | 22.6 | 30.2 | 73.3 | 1024.7 | 4.2 | WNW | 6.4 | W | 0.0 | 451.6 | |||||||||
| 08:25 | 22.7 | 30.7 | 73.6 | 1024.7 | 4.2 | NW | 8.8 | NW | 0.0 | 464.5 | |||||||||
| 08:30 | 22.8 | 31.0 | 72.7 | 1024.7 | 5.2 | WNW | 8.5 | WNW | 0.0 | 477.3 | |||||||||
| 08:35 | 22.8 | 31.1 | 72.8 | 1024.7 | 5.3 | WNW | 10.2 | WNW | 0.0 | 489.5 | |||||||||
| 08:40 | 23.0 | 31.3 | 71.6 | 1024.8 | 6.1 | NW | 9.0 | WNW | 0.0 | 501.7 | |||||||||
| 08:45 | 23.0 | 31.7 | 71.8 | 1024.8 | 4.1 | WNW | 7.8 | WNW | 0.0 | 514.0 | |||||||||
| 08:50 | 23.4 | 32.0 | 70.8 | 1024.8 | 4.7 | WNW | 8.1 | WNW | 0.0 | 525.9 | |||||||||
| 08:55 | 23.5 | 32.2 | 69.8 | 1024.9 | 4.3 | WNW | 8.3 | WNW | 0.0 | 537.6 | |||||||||
| 09:00 | 23.9 | 32.2 | 68.6 | 1024.9 | 3.1 | NW | 7.8 | NW | 0.0 | 549.7 | |||||||||
| 09:05 | 24.5 | 32.5 | 66.3 | 1025.0 | 4.1 | NNW | 7.4 | WNW | 0.0 | 561.7 | |||||||||
| 09:10 | 24.7 | 32.8 | 64.6 | 1024.9 | 4.1 | NW | 6.7 | NW | 0.0 | 574.0 | |||||||||
| 09:15 | 25.1 | 33.1 | 63.3 | 1024.9 | 3.3 | N | 6.0 | NNE | 0.0 | 585.1 | |||||||||
| 09:20 | 25.6 | 33.4 | 61.6 | 1024.9 | 1.2 | NNE | 5.6 | NNE | 0.0 | 596.9 | |||||||||
| 09:25 | 26.1 | 33.9 | 59.0 | 1024.9 | 2.2 | NW | 6.0 | 0.0 | 609.7 | ||||||||||
| 09:30 | 26.3 | 34.2 | 57.3 | 1024.9 | 3.3 | NW | 7.8 | NW | 0.0 | 617.2 | |||||||||
| 09:35 | 26.4 | 34.8 | 58.7 | 1024.9 | 3.7 | W | 7.8 | NW | 0.0 | 618.3 | |||||||||
| 09:40 | 26.6 | 35.3 | 56.3 | 1025.0 | 6.0 | NW | 10.6 | W | 0.0 | 630.5 | |||||||||
| 09:45 | 26.8 | 35.8 | 54.9 | 1025.0 | 5.2 | WNW | 8.8 | NW | 0.0 | 646.8 | |||||||||
| 09:50 | 26.9 | 35.8 | 54.2 | 1025.1 | 5.2 | WNW | 9.9 | W | 0.0 | 652.0 | |||||||||
| 09:55 | 27.2 | 35.8 | 53.2 | 1025.1 | 5.0 | W | 9.2 | NNW | 0.0 | 662.3 | |||||||||
| 10:00 | 27.4 | 36.0 | 52.0 | 1025.0 | 4.4 | W | 9.5 | WNW | 0.0 | 672.0 | |||||||||
| 10:05 | 27.8 | 36.6 | 51.6 | 1025.0 | 3.2 | NNW | 7.4 | NNE | 0.0 | 674.0 | |||||||||
| 10:10 | 28.1 | 36.9 | 49.6 | 1024.9 | 5.8 | NNW | 9.5 | N | 0.0 | 687.4 | |||||||||
| 10:15 | 28.4 | 37.2 | 48.9 | 1024.9 | 4.7 | W | 8.8 | W | 0.0 | 695.5 | |||||||||
| 10:20 | 28.4 | 37.2 | 48.0 | 1024.9 | 3.4 | WNW | 6.4 | SW | 0.0 | 704.7 | |||||||||
| 10:25 | 28.6 | 37.0 | 47.7 | 1024.9 | 4.5 | W | 9.9 | SW | 0.0 | 711.0 | |||||||||
| 10:30 | 29.0 | 37.1 | 46.6 | 1024.9 | 2.3 | SSW | 5.6 | WSW | 0.0 | 707.0 | |||||||||
| 10:35 | 29.2 | 37.1 | 46.3 | 1024.8 | 2.9 | NNW | 9.2 | NW | 0.0 | 710.7 | |||||||||
| 10:40 | 29.5 | 37.5 | 45.4 | 1024.7 | 6.7 | W | 12.7 | WSW | 0.0 | 719.3 | |||||||||
| Màxima | 29.5 | 37.5 | 96.8 | 1025.1 | 7.6 | ESE | 12.7 | WSW | 0.0 | 719.3 | |||||||||
| Mínima | 15.7 | 14.2 | 45.4 | 1023.4 | |||||||||||||||
| Total | 0.0 | ||||||||||||||||||